createdAt,value
2018-08-28T00:00:31.599Z,12.99
2018-08-28T00:03:35.933Z,13.02
2018-08-28T00:06:40.268Z,13.04
2018-08-28T00:09:44.590Z,13.07
2018-08-28T00:12:48.909Z,13.11
2018-08-28T00:15:53.371Z,13.12
2018-08-28T00:18:57.757Z,13.13
2018-08-28T00:22:01.874Z,13.10
2018-08-28T00:25:06.194Z,13.10
2018-08-28T00:28:10.476Z,13.09
2018-08-28T00:31:14.771Z,13.08
2018-08-28T00:34:19.141Z,13.05
2018-08-28T00:37:23.556Z,12.99
2018-08-28T00:40:27.905Z,12.94
2018-08-28T00:43:32.169Z,12.89
2018-08-28T00:46:36.523Z,12.84
2018-08-28T00:49:40.789Z,12.80
2018-08-28T00:52:44.868Z,12.79
2018-08-28T00:55:49.177Z,12.78
2018-08-28T00:58:53.458Z,12.80
2018-08-28T01:01:57.809Z,12.80
2018-08-28T01:05:02.113Z,12.78
2018-08-28T01:08:06.572Z,12.74
2018-08-28T01:11:10.888Z,12.69
2018-08-28T01:14:15.153Z,12.67
2018-08-28T01:17:19.519Z,12.66
2018-08-28T01:20:23.854Z,12.66
2018-08-28T01:23:28.179Z,12.64
2018-08-28T01:26:32.600Z,12.64
2018-08-28T01:29:36.996Z,12.64
2018-08-28T01:32:41.314Z,12.64
2018-08-28T01:35:45.616Z,12.68
2018-08-28T01:38:49.895Z,12.72
2018-08-28T01:41:54.180Z,12.77
2018-08-28T01:44:58.476Z,12.83
2018-08-28T01:48:02.765Z,12.92
2018-08-28T01:51:07.236Z,13.02
2018-08-28T01:54:12.086Z,13.12
2018-08-28T01:57:16.405Z,13.23
2018-08-28T02:00:20.801Z,13.35
2018-08-28T02:03:26.911Z,13.45
2018-08-28T02:06:32.069Z,13.58
2018-08-28T02:09:36.999Z,13.70
2018-08-28T02:12:49.554Z,13.76
2018-08-28T02:15:53.881Z,13.80
2018-08-28T02:18:58.664Z,13.85
2018-08-28T02:22:03.013Z,13.88
2018-08-28T02:25:07.820Z,13.88
2018-08-28T02:28:12.027Z,13.91
2018-08-28T02:31:16.192Z,13.93
2018-08-28T02:34:20.518Z,13.96
2018-08-28T02:37:24.842Z,13.99
2018-08-28T02:40:29.162Z,14.06
2018-08-28T02:43:33.458Z,14.06
2018-08-28T02:46:38.371Z,14.17
2018-08-28T02:49:42.718Z,14.20
2018-08-28T02:52:46.839Z,14.23
2018-08-28T02:55:51.157Z,14.25
2018-08-28T02:58:55.463Z,14.23
2018-08-28T03:01:59.801Z,14.21
2018-08-28T03:05:04.092Z,14.08
2018-08-28T03:08:08.435Z,13.94
2018-08-28T03:11:12.800Z,13.80
2018-08-28T03:14:17.078Z,13.68
2018-08-28T03:17:21.402Z,13.58
2018-08-28T03:20:25.731Z,13.48
2018-08-28T03:23:30.033Z,13.38
2018-08-28T03:26:34.375Z,13.32
2018-08-28T03:29:38.652Z,13.23
2018-08-28T03:32:42.765Z,13.15
2018-08-28T03:35:47.140Z,13.13
2018-08-28T03:38:51.474Z,13.05
2018-08-28T03:41:55.864Z,13.00
2018-08-28T03:45:00.172Z,12.97
2018-08-28T03:48:04.317Z,12.89
2018-08-28T03:51:09.007Z,12.84
2018-08-28T03:54:13.373Z,12.77
2018-08-28T03:57:17.790Z,12.73
2018-08-28T04:00:22.176Z,12.68
2018-08-28T04:03:26.289Z,12.63
2018-08-28T04:06:30.835Z,12.56
2018-08-28T04:09:35.155Z,12.47
2018-08-28T04:12:39.634Z,12.39
2018-08-28T04:15:43.867Z,12.33
2018-08-28T04:18:48.229Z,12.28
2018-08-28T04:21:52.545Z,12.25
2018-08-28T04:24:56.830Z,12.19
2018-08-28T04:28:01.159Z,12.17
2018-08-28T04:31:05.492Z,12.12
2018-08-28T04:34:09.761Z,12.11
2018-08-28T04:37:14.013Z,12.09
2018-08-28T04:40:18.408Z,12.10
2018-08-28T04:43:22.514Z,12.14
2018-08-28T04:46:26.615Z,12.14
2018-08-28T04:49:30.929Z,12.13
2018-08-28T04:52:35.535Z,12.11
2018-08-28T04:55:39.801Z,12.13
2018-08-28T04:58:44.179Z,12.17
2018-08-28T05:01:48.522Z,12.19
2018-08-28T05:04:52.617Z,12.23
2018-08-28T05:07:56.773Z,12.27
2018-08-28T05:11:00.879Z,12.31
2018-08-28T05:14:05.296Z,12.36
2018-08-28T05:17:09.590Z,12.39
2018-08-28T05:20:13.938Z,12.40
2018-08-28T05:23:18.232Z,12.44
2018-08-28T05:26:22.567Z,12.47
2018-08-28T05:29:26.901Z,12.52
2018-08-28T05:32:31.075Z,12.54
2018-08-28T05:35:35.338Z,12.60
2018-08-28T05:38:39.665Z,12.66
2018-08-28T05:41:44.310Z,12.72
2018-08-28T05:44:48.577Z,12.81
2018-08-28T05:47:52.925Z,12.90
2018-08-28T05:50:57.182Z,13.00
2018-08-28T05:54:01.539Z,13.14
2018-08-28T05:57:05.541Z,13.31
2018-08-28T06:00:09.938Z,13.50
2018-08-28T06:03:14.391Z,13.63
2018-08-28T06:06:18.826Z,13.76
2018-08-28T06:09:23.132Z,13.86
2018-08-28T06:12:27.460Z,13.94
2018-08-28T06:15:31.478Z,14.09
2018-08-28T06:18:35.786Z,14.17
2018-08-28T06:21:40.085Z,14.27
2018-08-28T06:24:44.116Z,14.34
2018-08-28T06:27:48.273Z,14.49
2018-08-28T06:30:52.560Z,14.61
2018-08-28T06:33:56.769Z,14.74
2018-08-28T06:37:00.996Z,14.84
2018-08-28T06:40:05.345Z,14.91
2018-08-28T06:43:09.651Z,14.95
2018-08-28T06:46:13.980Z,14.96
2018-08-28T06:49:18.097Z,14.98
2018-08-28T06:52:22.379Z,15.05
2018-08-28T06:55:27.215Z,15.14
2018-08-28T06:58:31.370Z,15.29
2018-08-28T07:01:35.750Z,15.42
2018-08-28T07:04:40.340Z,15.54
2018-08-28T07:07:44.711Z,15.63
2018-08-28T07:10:49.146Z,15.61
2018-08-28T07:13:53.473Z,15.69
2018-08-28T07:16:57.879Z,15.85
2018-08-28T07:20:02.228Z,16.00
2018-08-28T07:23:06.563Z,16.13
2018-08-28T07:26:10.884Z,16.22
2018-08-28T07:29:15.170Z,16.34
2018-08-28T07:32:19.501Z,16.46
2018-08-28T07:35:23.795Z,16.61
2018-08-28T07:38:28.121Z,16.67
2018-08-28T07:41:32.413Z,16.80
2018-08-28T07:44:37.573Z,16.88
2018-08-28T07:47:41.882Z,17.01
2018-08-28T07:50:46.173Z,17.13
2018-08-28T07:53:50.635Z,17.21
2018-08-28T07:56:54.842Z,17.25
2018-08-28T07:59:59.164Z,17.27
2018-08-28T08:03:03.447Z,17.35
2018-08-28T08:06:07.814Z,17.47
2018-08-28T08:09:12.585Z,17.54
2018-08-28T08:12:16.884Z,17.61
2018-08-28T08:15:21.205Z,17.70
2018-08-28T08:18:25.498Z,17.63
2018-08-28T08:21:29.792Z,17.44
2018-08-28T08:24:34.066Z,17.35
2018-08-28T08:27:38.364Z,17.34
2018-08-28T08:30:42.654Z,17.46
2018-08-28T08:33:47.002Z,17.56
2018-08-28T08:36:51.574Z,17.70
2018-08-28T08:39:55.964Z,17.81
2018-08-28T08:43:00.272Z,17.98
2018-08-28T08:46:04.569Z,18.12
2018-08-28T08:49:08.921Z,18.29
2018-08-28T08:52:13.240Z,18.29
2018-08-28T08:55:17.507Z,18.40
2018-08-28T08:58:21.804Z,18.50
2018-08-28T09:01:26.171Z,18.50
2018-08-28T09:04:30.537Z,18.56
2018-08-28T09:07:34.960Z,18.76
2018-08-28T09:10:42.109Z,18.99
2018-08-28T09:13:46.523Z,19.14
2018-08-28T09:16:50.782Z,18.96
2018-08-28T09:19:55.073Z,18.82
2018-08-28T09:22:59.359Z,18.94
2018-08-28T09:26:03.717Z,18.96
2018-08-28T09:29:08.015Z,19.14
2018-08-28T09:32:12.383Z,19.27
2018-08-28T09:35:16.648Z,19.44
2018-08-28T09:38:20.959Z,19.40
2018-08-28T09:41:25.247Z,19.28
2018-08-28T09:44:29.551Z,19.29
2018-08-28T09:47:33.831Z,19.04
2018-08-28T09:50:38.232Z,19.17
2018-08-28T09:53:42.502Z,19.36
2018-08-28T09:56:47.033Z,19.50
2018-08-28T09:59:51.320Z,19.46
2018-08-28T10:02:56.319Z,19.50
2018-08-28T10:06:00.689Z,19.57
2018-08-28T10:09:07.497Z,19.69
2018-08-28T10:12:11.741Z,19.80
2018-08-28T10:15:16.092Z,19.82
2018-08-28T10:18:20.414Z,19.74
2018-08-28T10:21:24.745Z,19.85
2018-08-28T10:24:29.396Z,19.95
2018-08-28T10:27:33.721Z,20.23
2018-08-28T10:30:38.011Z,20.39
2018-08-28T10:33:42.270Z,20.37
2018-08-28T10:36:46.526Z,20.34
2018-08-28T10:39:50.872Z,20.30
2018-08-28T10:42:55.164Z,20.22
2018-08-28T10:45:59.516Z,20.44
2018-08-28T10:49:03.845Z,20.48
2018-08-28T10:52:08.170Z,20.52
2018-08-28T10:55:12.469Z,20.36
2018-08-28T10:58:16.762Z,20.13
2018-08-28T11:01:21.093Z,20.03
2018-08-28T11:04:25.440Z,19.84
2018-08-28T11:07:29.736Z,19.75
2018-08-28T11:10:33.999Z,19.75
2018-08-28T11:13:38.352Z,19.78
2018-08-28T11:16:42.643Z,19.72
2018-08-28T11:19:46.935Z,19.70
2018-08-28T11:22:51.209Z,19.93
2018-08-28T11:25:55.507Z,20.09
2018-08-28T11:28:59.889Z,20.01
2018-08-28T11:32:04.316Z,20.30
2018-08-28T11:35:08.753Z,20.79
2018-08-28T11:38:13.162Z,21.02
2018-08-28T11:41:17.587Z,21.13
2018-08-28T11:44:21.908Z,21.34
2018-08-28T11:47:26.250Z,21.40
2018-08-28T11:50:30.622Z,21.28
2018-08-28T11:53:34.971Z,21.20
2018-08-28T11:56:39.256Z,20.94
2018-08-28T11:59:43.581Z,20.72
2018-08-28T12:02:47.911Z,20.41
2018-08-28T12:05:52.861Z,20.30
2018-08-28T12:08:57.211Z,20.12
2018-08-28T12:12:01.693Z,20.00
2018-08-28T12:15:06.157Z,20.05
2018-08-28T12:18:10.509Z,20.39
2018-08-28T12:21:14.843Z,20.52
2018-08-28T12:24:19.615Z,20.70
2018-08-28T12:27:23.874Z,20.73
2018-08-28T12:30:28.176Z,20.77
2018-08-28T12:33:32.545Z,21.10
2018-08-28T12:36:36.899Z,21.38
2018-08-28T12:39:41.121Z,21.38
2018-08-28T12:42:45.374Z,21.34
2018-08-28T12:45:50.148Z,21.25
2018-08-28T12:48:54.451Z,20.85
2018-08-28T12:51:58.736Z,20.76
2018-08-28T12:55:03.136Z,20.72
2018-08-28T12:58:08.191Z,20.83
2018-08-28T13:01:13.552Z,20.81
2018-08-28T13:04:18.854Z,20.96
2018-08-28T13:07:24.107Z,20.94
2018-08-28T13:10:29.295Z,20.78
2018-08-28T13:13:34.307Z,21.04
2018-08-28T13:16:38.788Z,21.32
2018-08-28T13:19:43.551Z,21.54
2018-08-28T13:22:48.147Z,21.75
2018-08-28T13:25:52.797Z,21.98
2018-08-28T13:28:57.360Z,21.92
2018-08-28T13:32:02.039Z,21.81
2018-08-28T13:35:06.703Z,21.86
2018-08-28T13:38:11.341Z,21.84
2018-08-28T13:41:15.508Z,21.68
2018-08-28T13:44:19.845Z,21.73
2018-08-28T13:47:24.290Z,21.79
2018-08-28T13:50:28.638Z,21.74
2018-08-28T13:53:32.947Z,21.71
2018-08-28T13:56:37.697Z,21.64
2018-08-28T13:59:42.088Z,21.42
2018-08-28T14:02:46.720Z,21.37
2018-08-28T14:05:51.100Z,21.00
2018-08-28T14:08:55.424Z,20.67
2018-08-28T14:11:59.749Z,20.70
2018-08-28T14:15:04.232Z,20.62
2018-08-28T14:18:08.516Z,20.49
2018-08-28T14:21:12.786Z,20.45
2018-08-28T14:24:17.071Z,20.42
2018-08-28T14:27:21.410Z,20.10
2018-08-28T14:30:25.725Z,20.04
2018-08-28T14:33:30.036Z,19.82
2018-08-28T14:36:34.319Z,19.76
2018-08-28T14:39:38.720Z,19.80
2018-08-28T14:42:43.032Z,19.86
2018-08-28T14:45:47.310Z,19.92
2018-08-28T14:48:51.571Z,20.00
2018-08-28T14:51:56.144Z,20.07
2018-08-28T14:55:00.562Z,19.84
2018-08-28T14:58:04.981Z,19.83
2018-08-28T15:01:09.294Z,19.89
2018-08-28T15:04:13.581Z,19.89
2018-08-28T15:07:17.894Z,19.88
2018-08-28T15:10:22.349Z,19.80
2018-08-28T15:13:26.768Z,19.88
2018-08-28T15:16:31.138Z,19.93
2018-08-28T15:19:35.414Z,19.87
2018-08-28T15:22:39.857Z,19.86
2018-08-28T15:25:44.328Z,19.81
2018-08-28T15:28:48.645Z,20.01
2018-08-28T15:31:52.972Z,19.93
2018-08-28T15:34:57.317Z,19.90
2018-08-28T15:38:01.774Z,19.81
2018-08-28T15:41:06.348Z,19.75
2018-08-28T15:44:10.752Z,19.70
2018-08-28T15:47:15.344Z,19.78
2018-08-28T15:50:19.642Z,19.85
2018-08-28T15:53:24.054Z,19.75
2018-08-28T15:56:28.385Z,19.79
2018-08-28T15:59:32.821Z,19.69
2018-08-28T16:02:37.198Z,19.69
2018-08-28T16:05:41.626Z,19.67
2018-08-28T16:08:45.999Z,19.63
2018-08-28T16:11:50.326Z,19.62
2018-08-28T16:14:54.770Z,19.48
2018-08-28T16:17:59.366Z,19.41
2018-08-28T16:21:03.741Z,19.30
2018-08-28T16:24:08.066Z,19.18
2018-08-28T16:27:12.485Z,19.17
2018-08-28T16:30:16.876Z,19.09
2018-08-28T16:33:21.297Z,19.08
2018-08-28T16:36:25.748Z,18.96
2018-08-28T16:39:30.122Z,18.88
2018-08-28T16:42:34.577Z,18.85
2018-08-28T16:45:38.885Z,18.86
2018-08-28T16:48:43.242Z,18.83
2018-08-28T16:51:47.559Z,18.81
2018-08-28T16:54:51.856Z,18.75
2018-08-28T16:57:56.181Z,18.69
2018-08-28T17:01:00.455Z,18.67
2018-08-28T17:04:04.842Z,18.58
2018-08-28T17:07:09.254Z,18.51
2018-08-28T17:10:13.545Z,18.49
2018-08-28T17:13:17.966Z,18.45
2018-08-28T17:16:22.307Z,18.41
2018-08-28T17:19:26.672Z,18.38
2018-08-28T17:22:31.025Z,18.40
2018-08-28T17:25:35.345Z,18.37
2018-08-28T17:28:39.791Z,18.31
2018-08-28T17:31:44.208Z,18.28
2018-08-28T17:34:48.623Z,18.30
2018-08-28T17:37:52.941Z,18.29
2018-08-28T17:40:57.269Z,18.28
2018-08-28T17:44:01.578Z,18.23
2018-08-28T17:47:06.274Z,18.20
2018-08-28T17:50:10.785Z,18.19
2018-08-28T17:53:15.172Z,18.19
2018-08-28T17:56:19.483Z,18.14
2018-08-28T17:59:23.795Z,18.11
2018-08-28T18:02:28.164Z,18.09
2018-08-28T18:05:32.566Z,17.98
2018-08-28T18:08:37.030Z,17.92
2018-08-28T18:11:41.341Z,17.83
2018-08-28T18:14:45.783Z,17.81
2018-08-28T18:17:50.132Z,17.75
2018-08-28T18:20:54.579Z,17.69
2018-08-28T18:23:59.330Z,17.62
2018-08-28T18:27:03.719Z,17.55
2018-08-28T18:30:08.707Z,17.48
2018-08-28T18:33:16.085Z,17.47
2018-08-28T18:36:20.795Z,17.41
2018-08-28T18:39:25.141Z,17.37
2018-08-28T18:42:29.659Z,17.32
2018-08-28T18:45:34.069Z,17.24
2018-08-28T18:48:38.526Z,17.20
2018-08-28T18:51:43.942Z,17.15
2018-08-28T18:54:48.343Z,17.13
2018-08-28T18:57:52.892Z,17.08
2018-08-28T19:00:57.324Z,17.05
2018-08-28T19:04:01.849Z,17.03
2018-08-28T19:07:06.464Z,17.00
2018-08-28T19:10:11.135Z,16.97
2018-08-28T19:13:15.850Z,16.95
2018-08-28T19:16:20.321Z,16.94
2018-08-28T19:19:24.801Z,16.93
2018-08-28T19:22:29.473Z,16.92
2018-08-28T19:25:34.803Z,16.89
2018-08-28T19:28:39.338Z,16.85
2018-08-28T19:31:43.879Z,16.82
2018-08-28T19:34:48.299Z,16.79
2018-08-28T19:37:52.851Z,16.77
2018-08-28T19:40:57.345Z,16.76
2018-08-28T19:44:02.032Z,16.72
2018-08-28T19:47:06.610Z,16.69
2018-08-28T19:50:11.285Z,16.66
2018-08-28T19:53:15.856Z,16.65
2018-08-28T19:56:20.365Z,16.66
2018-08-28T19:59:24.785Z,16.64
2018-08-28T20:02:29.130Z,16.60
2018-08-28T20:05:33.594Z,16.56
2018-08-28T20:08:38.043Z,16.53
2018-08-28T20:11:42.397Z,16.53
2018-08-28T20:14:46.729Z,16.53
2018-08-28T20:17:51.109Z,16.51
2018-08-28T20:20:55.500Z,16.48
2018-08-28T20:23:59.786Z,16.44
2018-08-28T20:27:04.200Z,16.42
2018-08-28T20:30:08.704Z,16.42
2018-08-28T20:33:13.157Z,16.37
2018-08-28T20:36:17.523Z,16.29
2018-08-28T20:39:21.839Z,16.19
2018-08-28T20:42:26.146Z,16.14
2018-08-28T20:45:30.516Z,16.08
2018-08-28T20:48:34.896Z,16.01
2018-08-28T20:51:39.302Z,15.94
2018-08-28T20:54:43.624Z,15.90
2018-08-28T20:57:47.947Z,15.88
2018-08-28T21:00:52.501Z,15.88
2018-08-28T21:03:56.729Z,15.91
2018-08-28T21:07:01.114Z,15.91
2018-08-28T21:10:05.748Z,15.88
2018-08-28T21:13:10.173Z,15.84
2018-08-28T21:16:15.467Z,15.82
2018-08-28T21:19:20.561Z,15.79
2018-08-28T21:22:25.637Z,15.75
2018-08-28T21:25:31.027Z,15.71
2018-08-28T21:28:35.306Z,15.65
2018-08-28T21:31:39.636Z,15.63
2018-08-28T21:34:43.968Z,15.63
2018-08-28T21:37:48.303Z,15.67
2018-08-28T21:40:52.586Z,15.67
2018-08-28T21:43:56.955Z,15.55
2018-08-28T21:47:01.273Z,15.36
2018-08-28T21:50:05.593Z,15.16
2018-08-28T21:53:09.873Z,15.03
2018-08-28T21:56:14.236Z,14.92
2018-08-28T21:59:18.659Z,14.88
2018-08-28T22:02:22.978Z,14.80
2018-08-28T22:05:30.077Z,14.70
2018-08-28T22:08:34.389Z,14.56
2018-08-28T22:11:38.675Z,14.46
2018-08-28T22:14:43.030Z,14.37
2018-08-28T22:17:47.330Z,14.38
2018-08-28T22:20:56.101Z,14.39
2018-08-28T22:24:00.502Z,14.31
2018-08-28T22:27:04.827Z,14.19
2018-08-28T22:30:09.876Z,14.07
2018-08-28T22:33:13.987Z,13.98
2018-08-28T22:36:18.396Z,13.91
2018-08-28T22:39:22.821Z,13.89
2018-08-28T22:42:27.348Z,13.89
2018-08-28T22:45:31.878Z,13.91
2018-08-28T22:48:36.387Z,13.88
2018-08-28T22:51:40.665Z,13.84
2018-08-28T22:54:45.029Z,13.83
2018-08-28T22:57:49.316Z,13.80
2018-08-28T23:00:53.763Z,13.76
2018-08-28T23:03:58.052Z,13.71
2018-08-28T23:07:02.442Z,13.68
2018-08-28T23:10:06.860Z,13.62
2018-08-28T23:13:11.381Z,13.57
2018-08-28T23:16:15.667Z,13.58
2018-08-28T23:19:19.992Z,13.57
2018-08-28T23:22:24.339Z,13.54
2018-08-28T23:25:28.582Z,13.50
2018-08-28T23:28:32.983Z,13.49
2018-08-28T23:31:37.273Z,13.47
2018-08-28T23:34:41.597Z,13.40
2018-08-28T23:37:49.247Z,13.37
2018-08-28T23:40:53.518Z,13.33
2018-08-28T23:43:57.849Z,13.29
2018-08-28T23:47:02.167Z,13.25
2018-08-28T23:50:06.501Z,13.28
2018-08-28T23:53:10.807Z,13.30
2018-08-28T23:56:14.952Z,13.35
2018-08-28T23:59:19.307Z,13.42
